createdAt,value
2018-02-20T00:00:29.102Z,1.29
2018-02-20T00:02:56.494Z,1.18
2018-02-20T00:05:23.886Z,1.17
2018-02-20T00:07:51.279Z,1.17
2018-02-20T00:10:18.718Z,1.14
2018-02-20T00:12:46.117Z,1.12
2018-02-20T00:15:13.623Z,1.11
2018-02-20T00:17:41.029Z,1.12
2018-02-20T00:20:08.415Z,0.82
2018-02-20T00:22:35.912Z,0.60
2018-02-20T00:25:03.346Z,0.46
2018-02-20T00:27:30.802Z,0.45
2018-02-20T00:29:58.216Z,0.51
2018-02-20T00:32:25.607Z,0.43
2018-02-20T00:34:53.039Z,0.47
2018-02-20T00:37:20.518Z,0.59
2018-02-20T00:39:47.919Z,0.46
2018-02-20T00:42:15.371Z,0.28
2018-02-20T00:44:42.763Z,0.31
2018-02-20T00:47:10.259Z,0.40
2018-02-20T00:49:37.650Z,0.33
2018-02-20T00:52:05.047Z,0.36
2018-02-20T00:54:32.498Z,0.40
2018-02-20T00:56:59.892Z,0.45
2018-02-20T00:59:27.312Z,0.47
2018-02-20T01:01:54.791Z,0.51
2018-02-20T01:04:22.201Z,0.38
2018-02-20T01:06:49.621Z,0.29
2018-02-20T01:09:17.040Z,0.31
2018-02-20T01:11:44.435Z,0.29
2018-02-20T01:14:11.843Z,0.21
2018-02-20T01:16:39.247Z,0.24
2018-02-20T01:19:07.031Z,0.23
2018-02-20T01:21:34.419Z,0.23
2018-02-20T01:24:01.882Z,0.12
2018-02-20T01:26:29.340Z,-0.02
2018-02-20T01:28:56.794Z,0.00
2018-02-20T01:31:24.209Z,-0.13
2018-02-20T01:33:51.603Z,-0.42
2018-02-20T01:36:19.012Z,-0.38
2018-02-20T01:38:46.520Z,-0.33
2018-02-20T01:41:13.911Z,-0.18
2018-02-20T01:43:41.319Z,-0.06
2018-02-20T01:46:08.795Z,-0.02
2018-02-20T01:48:36.219Z,0.12
2018-02-20T01:51:08.561Z,0.29
2018-02-20T01:53:36.050Z,0.15
2018-02-20T01:56:03.537Z,0.09
2018-02-20T01:58:30.943Z,0.04
2018-02-20T02:00:58.434Z,0.09
2018-02-20T02:03:25.951Z,0.17
2018-02-20T02:05:53.343Z,0.22
2018-02-20T02:08:20.739Z,0.26
2018-02-20T02:10:48.127Z,0.26
2018-02-20T02:13:15.524Z,0.26
2018-02-20T02:15:43.167Z,0.27
2018-02-20T02:18:10.571Z,0.29
2018-02-20T02:20:37.971Z,0.26
2018-02-20T02:23:05.454Z,0.36
2018-02-20T02:25:32.851Z,0.36
2018-02-20T02:28:00.238Z,0.28
2018-02-20T02:30:27.709Z,0.12
2018-02-20T02:32:55.101Z,0.18
2018-02-20T02:35:22.518Z,0.22
2018-02-20T02:37:49.915Z,0.41
2018-02-20T02:40:17.331Z,0.32
2018-02-20T02:42:44.718Z,0.24
2018-02-20T02:45:12.131Z,0.40
2018-02-20T02:47:39.523Z,0.42
2018-02-20T02:50:06.937Z,0.47
2018-02-20T02:52:34.319Z,0.48
2018-02-20T02:55:01.759Z,0.52
2018-02-20T02:57:29.304Z,0.61
2018-02-20T02:59:56.794Z,0.64
2018-02-20T03:02:24.216Z,0.74
2018-02-20T03:04:51.678Z,0.62
2018-02-20T03:07:19.131Z,0.64
2018-02-20T03:09:46.555Z,0.72
2018-02-20T03:12:14.054Z,0.77
2018-02-20T03:14:41.455Z,0.72
2018-02-20T03:17:08.919Z,0.53
2018-02-20T03:22:03.033Z,0.60
2018-02-20T03:24:30.423Z,0.57
2018-02-20T03:26:57.818Z,0.43
2018-02-20T03:29:25.215Z,0.43
2018-02-20T03:31:52.622Z,0.31
2018-02-20T03:34:20.033Z,0.29
2018-02-20T03:36:47.406Z,0.25
2018-02-20T03:39:14.827Z,0.19
2018-02-20T03:41:42.286Z,0.43
2018-02-20T03:44:09.686Z,0.54
2018-02-20T03:46:37.088Z,0.63
2018-02-20T03:49:04.487Z,0.62
2018-02-20T03:51:32.004Z,0.64
2018-02-20T03:53:59.398Z,0.53
2018-02-20T03:56:26.815Z,0.63
2018-02-20T03:58:54.223Z,0.59
2018-02-20T04:01:21.623Z,0.60
2018-02-20T04:03:49.095Z,0.55
2018-02-20T04:06:16.490Z,0.58
2018-02-20T04:08:43.885Z,0.60
2018-02-20T04:11:11.334Z,0.53
2018-02-20T04:13:38.716Z,0.39
2018-02-20T04:16:06.119Z,0.42
2018-02-20T04:18:33.511Z,0.28
2018-02-20T04:21:00.922Z,0.29
2018-02-20T04:23:28.321Z,0.27
2018-02-20T04:25:55.770Z,0.31
2018-02-20T04:28:23.226Z,0.36
2018-02-20T04:30:50.627Z,0.41
2018-02-20T04:33:18.031Z,0.29
2018-02-20T04:35:45.430Z,0.11
2018-02-20T04:38:12.831Z,-0.03
2018-02-20T04:40:40.237Z,-0.05
2018-02-20T04:43:07.634Z,-0.04
2018-02-20T04:45:35.094Z,0.00
2018-02-20T04:48:03.390Z,0.11
2018-02-20T04:50:30.847Z,0.14
2018-02-20T04:52:58.256Z,-0.05
2018-02-20T04:55:25.671Z,-0.35
2018-02-20T04:57:53.062Z,-0.55
2018-02-20T05:00:20.468Z,-0.60
2018-02-20T05:02:47.923Z,-0.74
2018-02-20T05:05:15.328Z,-0.81
2018-02-20T05:07:42.727Z,-0.64
2018-02-20T05:10:10.135Z,-0.46
2018-02-20T05:12:37.546Z,-0.31
2018-02-20T05:15:04.952Z,-0.18
2018-02-20T05:17:32.355Z,-0.12
2018-02-20T05:19:59.811Z,-0.09
2018-02-20T05:22:27.259Z,-0.05
2018-02-20T05:24:54.663Z,-0.12
2018-02-20T05:27:22.060Z,-0.19
2018-02-20T05:29:49.460Z,-0.09
2018-02-20T05:32:16.886Z,-0.07
2018-02-20T05:34:44.358Z,-0.02
2018-02-20T05:37:11.779Z,-0.03
2018-02-20T05:39:39.179Z,-0.08
2018-02-20T05:42:06.579Z,-0.05
2018-02-20T05:44:34.023Z,0.05
2018-02-20T05:47:01.434Z,0.06
2018-02-20T05:49:28.834Z,-0.05
2018-02-20T05:51:56.230Z,-0.12
2018-02-20T05:54:23.626Z,-0.03
2018-02-20T05:56:51.018Z,0.00
2018-02-20T05:59:18.417Z,-0.01
2018-02-20T06:01:45.823Z,-0.03
2018-02-20T06:04:13.218Z,-0.04
2018-02-20T06:06:40.619Z,-0.12
2018-02-20T06:09:08.022Z,-0.08
2018-02-20T06:11:35.426Z,-0.24
2018-02-20T06:14:02.821Z,-0.24
2018-02-20T06:16:30.238Z,-0.29
2018-02-20T06:18:57.630Z,-0.37
2018-02-20T06:21:25.042Z,-0.40
2018-02-20T06:23:52.509Z,-0.40
2018-02-20T06:26:19.912Z,-0.62
2018-02-20T06:28:47.312Z,-0.46
2018-02-20T06:31:14.716Z,-0.49
2018-02-20T06:33:42.223Z,-0.49
2018-02-20T06:36:09.627Z,-0.60
2018-02-20T06:38:37.144Z,-0.59
2018-02-20T06:41:04.545Z,-0.50
2018-02-20T06:43:31.926Z,-0.47
2018-02-20T06:45:59.335Z,-0.64
2018-02-20T06:48:26.739Z,-0.57
2018-02-20T06:50:54.139Z,-0.76
2018-02-20T06:53:21.540Z,-0.59
2018-02-20T06:55:48.939Z,-0.43
2018-02-20T06:58:16.339Z,-0.22
2018-02-20T07:00:43.741Z,-0.06
2018-02-20T07:03:11.142Z,-0.07
2018-02-20T07:05:38.538Z,-0.02
2018-02-20T07:08:05.934Z,0.21
2018-02-20T07:10:33.330Z,0.45
2018-02-20T07:13:00.727Z,1.12
2018-02-20T07:15:28.125Z,1.84
2018-02-20T07:17:55.515Z,2.39
2018-02-20T07:20:22.922Z,3.02
2018-02-20T07:22:50.315Z,3.34
2018-02-20T07:25:17.771Z,3.89
2018-02-20T07:27:45.163Z,4.61
2018-02-20T07:30:13.507Z,5.06
2018-02-20T07:32:40.963Z,5.85
2018-02-20T07:35:08.355Z,6.56
2018-02-20T07:37:35.746Z,7.07
2018-02-20T07:40:03.150Z,7.63
2018-02-20T07:42:30.569Z,8.30
2018-02-20T07:44:57.951Z,8.10
2018-02-20T07:47:25.350Z,8.63
2018-02-20T07:49:52.748Z,9.32
2018-02-20T07:52:20.143Z,9.88
2018-02-20T07:54:47.548Z,10.42
2018-02-20T07:57:14.943Z,10.97
2018-02-20T07:59:42.344Z,11.22
2018-02-20T08:02:09.746Z,11.55
2018-02-20T08:04:37.138Z,11.88
2018-02-20T08:07:04.539Z,12.09
2018-02-20T08:09:31.937Z,12.13
2018-02-20T08:11:59.335Z,11.88
2018-02-20T08:14:26.737Z,11.63
2018-02-20T08:16:54.140Z,11.87
2018-02-20T08:19:21.531Z,11.87
2018-02-20T08:21:48.934Z,11.83
2018-02-20T08:24:16.339Z,11.91
2018-02-20T08:26:43.738Z,11.94
2018-02-20T08:29:11.131Z,12.06
2018-02-20T08:31:38.547Z,11.96
2018-02-20T08:34:05.943Z,12.08
2018-02-20T08:36:33.437Z,12.26
2018-02-20T08:39:00.831Z,12.74
2018-02-20T08:41:28.234Z,12.62
2018-02-20T08:43:55.734Z,12.60
2018-02-20T08:46:23.196Z,12.87
2018-02-20T08:48:50.594Z,13.08
2018-02-20T08:51:18.110Z,13.22
2018-02-20T08:53:45.503Z,13.21
2018-02-20T08:56:12.914Z,13.14
2018-02-20T08:58:40.369Z,13.20
2018-02-20T09:01:07.774Z,12.77
2018-02-20T09:03:35.175Z,12.32
2018-02-20T09:06:02.574Z,12.39
2018-02-20T09:08:29.971Z,12.55
2018-02-20T09:10:57.379Z,12.72
2018-02-20T09:13:24.812Z,12.04
2018-02-20T09:15:52.238Z,12.02
2018-02-20T09:18:19.635Z,11.80
2018-02-20T09:20:47.043Z,12.11
2018-02-20T09:23:14.446Z,11.08
2018-02-20T09:25:41.867Z,11.11
2018-02-20T09:28:09.259Z,10.72
2018-02-20T09:30:36.698Z,10.68
2018-02-20T09:33:04.521Z,10.28
2018-02-20T09:35:31.914Z,10.08
2018-02-20T09:37:59.348Z,10.09
2018-02-20T09:40:26.721Z,10.07
2018-02-20T09:42:54.169Z,10.46
2018-02-20T09:45:21.578Z,10.81
2018-02-20T09:47:48.994Z,11.12
2018-02-20T09:50:16.395Z,11.63
2018-02-20T09:52:43.807Z,11.66
2018-02-20T09:55:11.205Z,12.05
2018-02-20T09:57:38.718Z,11.72
2018-02-20T10:00:06.111Z,11.21
2018-02-20T10:02:33.514Z,10.84
2018-02-20T10:05:00.911Z,10.05
2018-02-20T10:07:28.324Z,10.13
2018-02-20T10:09:55.726Z,10.14
2018-02-20T10:12:23.128Z,10.20
2018-02-20T10:14:50.518Z,9.82
2018-02-20T10:17:17.914Z,9.69
2018-02-20T10:19:45.307Z,9.79
2018-02-20T10:22:12.705Z,9.67
2018-02-20T10:24:40.099Z,9.56
2018-02-20T10:27:07.499Z,8.80
2018-02-20T10:29:35.286Z,8.81
2018-02-20T10:32:02.699Z,8.47
2018-02-20T10:34:30.096Z,8.84
2018-02-20T10:36:57.498Z,8.68
2018-02-20T10:39:24.885Z,9.13
2018-02-20T10:41:52.283Z,9.86
2018-02-20T10:44:19.679Z,9.76
2018-02-20T10:46:47.075Z,9.44
2018-02-20T10:49:14.469Z,9.02
2018-02-20T10:51:41.879Z,8.73
2018-02-20T10:54:09.307Z,8.58
2018-02-20T10:56:36.718Z,7.80
2018-02-20T10:59:04.110Z,7.59
2018-02-20T11:01:31.519Z,7.01
2018-02-20T11:03:59.907Z,6.65
2018-02-20T11:06:27.323Z,6.46
2018-02-20T11:08:54.720Z,6.58
2018-02-20T11:11:22.126Z,6.58
2018-02-20T11:13:49.543Z,6.55
2018-02-20T11:16:16.946Z,6.45
2018-02-20T11:18:44.340Z,6.15
2018-02-20T11:21:11.738Z,5.94
2018-02-20T11:23:39.198Z,5.79
2018-02-20T11:26:06.650Z,5.93
2018-02-20T11:28:34.059Z,5.89
2018-02-20T11:31:01.460Z,5.84
2018-02-20T11:33:28.922Z,5.99
2018-02-20T11:35:56.323Z,6.16
2018-02-20T11:38:23.715Z,6.37
2018-02-20T11:40:51.106Z,6.37
2018-02-20T11:43:19.379Z,6.38
2018-02-20T11:45:46.777Z,6.26
2018-02-20T11:48:14.176Z,6.26
2018-02-20T11:50:41.707Z,6.15
2018-02-20T11:53:09.199Z,6.21
2018-02-20T11:55:36.598Z,6.50
2018-02-20T11:58:04.014Z,6.75
2018-02-20T12:00:31.408Z,6.75
2018-02-20T12:02:58.807Z,6.91
2018-02-20T12:05:26.220Z,7.10
2018-02-20T12:07:53.667Z,7.35
2018-02-20T12:10:21.011Z,7.17
2018-02-20T12:12:48.412Z,7.35
2018-02-20T12:15:15.805Z,7.02
2018-02-20T12:17:43.251Z,7.10
2018-02-20T12:20:10.647Z,7.22
2018-02-20T12:22:38.042Z,6.99
2018-02-20T12:25:05.437Z,6.83
2018-02-20T12:27:32.834Z,6.28
2018-02-20T12:30:00.231Z,6.01
2018-02-20T12:32:27.634Z,5.71
2018-02-20T12:34:55.035Z,5.61
2018-02-20T12:37:22.435Z,5.47
2018-02-20T12:39:49.851Z,5.41
2018-02-20T12:42:17.303Z,5.56
2018-02-20T12:44:44.721Z,5.94
2018-02-20T12:47:12.223Z,6.01
2018-02-20T12:49:39.618Z,5.91
2018-02-20T12:52:07.024Z,5.81
2018-02-20T12:54:34.515Z,5.93
2018-02-20T12:57:01.907Z,6.13
2018-02-20T12:59:29.304Z,6.32
2018-02-20T13:01:56.721Z,6.24
2018-02-20T13:04:24.111Z,6.43
2018-02-20T13:06:51.504Z,6.56
2018-02-20T13:09:18.974Z,6.94
2018-02-20T13:11:46.403Z,6.43
2018-02-20T13:14:13.843Z,6.29
2018-02-20T13:16:41.230Z,5.88
2018-02-20T13:19:08.639Z,6.03
2018-02-20T13:21:36.033Z,6.15
2018-02-20T13:24:03.453Z,6.44
2018-02-20T13:26:30.868Z,6.42
2018-02-20T13:28:58.263Z,6.15
2018-02-20T13:31:25.682Z,6.10
2018-02-20T13:33:53.176Z,6.02
2018-02-20T13:36:20.558Z,5.87
2018-02-20T13:38:47.969Z,5.74
2018-02-20T13:41:15.371Z,5.79
2018-02-20T13:43:42.767Z,6.05
2018-02-20T13:46:10.150Z,6.15
2018-02-20T13:48:37.556Z,6.30
2018-02-20T13:51:05.027Z,6.38
2018-02-20T13:56:06.232Z,6.70
2018-02-20T13:58:33.639Z,6.54
2018-02-20T14:01:01.034Z,6.41
2018-02-20T14:03:28.518Z,6.15
2018-02-20T14:05:55.907Z,6.11
2018-02-20T14:08:23.353Z,6.02
2018-02-20T14:10:50.742Z,5.97
2018-02-20T14:13:18.143Z,5.94
2018-02-20T14:15:45.539Z,6.07
2018-02-20T14:18:13.010Z,5.71
2018-02-20T14:20:40.419Z,5.67
2018-02-20T14:23:07.823Z,5.78
2018-02-20T14:25:35.211Z,6.02
2018-02-20T14:28:02.616Z,6.02
2018-02-20T14:30:30.034Z,5.71
2018-02-20T14:32:57.442Z,5.74
2018-02-20T14:35:24.834Z,5.70
2018-02-20T14:37:52.239Z,5.75
2018-02-20T14:40:19.638Z,5.70
2018-02-20T14:42:47.066Z,5.66
2018-02-20T14:45:14.475Z,5.64
2018-02-20T14:47:41.875Z,5.55
2018-02-20T14:50:09.262Z,5.81
2018-02-20T14:52:36.687Z,5.90
2018-02-20T14:55:04.071Z,5.77
2018-02-20T14:57:31.506Z,5.99
2018-02-20T14:59:58.946Z,6.18
2018-02-20T15:02:26.347Z,6.15
2018-02-20T15:04:53.738Z,5.79
2018-02-20T15:07:21.126Z,5.66
2018-02-20T15:09:48.550Z,5.68
2018-02-20T15:12:15.938Z,5.50
2018-02-20T15:14:43.335Z,5.61
2018-02-20T15:17:10.815Z,5.50
2018-02-20T15:19:38.212Z,5.38
2018-02-20T15:22:05.598Z,5.39
2018-02-20T15:24:32.996Z,5.54
2018-02-20T15:27:00.387Z,5.62
2018-02-20T15:29:27.788Z,5.74
2018-02-20T15:31:55.174Z,5.80
2018-02-20T15:34:22.588Z,5.60
2018-02-20T15:36:49.973Z,5.38
2018-02-20T15:39:17.424Z,5.41
2018-02-20T15:41:44.806Z,5.23
2018-02-20T15:44:12.237Z,5.15
2018-02-20T15:46:39.686Z,4.99
2018-02-20T15:49:07.158Z,4.92
2018-02-20T15:51:34.555Z,4.87
2018-02-20T15:54:01.954Z,4.64
2018-02-20T15:56:29.347Z,4.72
2018-02-20T15:58:56.742Z,4.60
2018-02-20T16:01:24.241Z,4.76
2018-02-20T16:03:51.631Z,4.73
2018-02-20T16:06:19.020Z,4.59
2018-02-20T16:08:46.414Z,4.64
2018-02-20T16:11:13.798Z,4.54
2018-02-20T16:13:41.194Z,4.55
2018-02-20T16:16:24.242Z,4.71
2018-02-20T16:18:51.643Z,4.71
2018-02-20T16:21:19.035Z,4.61
2018-02-20T16:23:46.503Z,4.61
2018-02-20T16:26:13.895Z,4.39
2018-02-20T16:28:41.310Z,4.41
2018-02-20T16:31:08.754Z,4.58
2018-02-20T16:33:36.218Z,4.61
2018-02-20T16:36:03.627Z,4.55
2018-02-20T16:38:31.006Z,4.40
2018-02-20T16:40:58.427Z,4.46
2018-02-20T16:43:25.835Z,4.46
2018-02-20T16:45:53.223Z,4.55
2018-02-20T16:48:20.647Z,4.52
2018-02-20T16:50:48.031Z,4.42
2018-02-20T16:53:15.426Z,4.34
2018-02-20T16:55:42.911Z,4.47
2018-02-20T16:58:10.314Z,4.53
2018-02-20T17:00:37.698Z,4.29
2018-02-20T17:03:05.095Z,4.10
2018-02-20T17:05:32.478Z,4.08
2018-02-20T17:07:59.917Z,4.04
2018-02-20T17:10:27.282Z,3.96
2018-02-20T17:12:54.670Z,4.00
2018-02-20T17:15:22.072Z,3.68
2018-02-20T17:17:49.458Z,3.53
2018-02-20T17:20:16.850Z,3.50
2018-02-20T17:22:44.321Z,3.63
2018-02-20T17:25:11.720Z,3.69
2018-02-20T17:27:39.103Z,3.65
2018-02-20T17:30:06.586Z,3.64
2018-02-20T17:32:33.975Z,3.53
2018-02-20T17:35:01.374Z,3.68
2018-02-20T17:37:28.857Z,3.48
2018-02-20T17:39:56.266Z,3.54
2018-02-20T17:42:23.703Z,3.56
2018-02-20T17:44:51.121Z,3.60
2018-02-20T17:47:18.513Z,3.49
2018-02-20T17:49:45.916Z,3.38
2018-02-20T17:52:13.302Z,3.46
2018-02-20T17:54:40.698Z,3.47
2018-02-20T17:57:08.095Z,3.37
2018-02-20T17:59:35.494Z,3.37
2018-02-20T18:02:02.879Z,3.46
2018-02-20T18:04:30.279Z,3.61
2018-02-20T18:06:57.680Z,3.65
2018-02-20T18:09:25.071Z,3.71
2018-02-20T18:11:52.474Z,3.50
2018-02-20T18:14:19.868Z,3.48
2018-02-20T18:16:47.335Z,3.42
2018-02-20T18:19:14.798Z,3.60
2018-02-20T18:21:42.193Z,3.58
2018-02-20T18:24:09.586Z,3.67
2018-02-20T18:26:36.991Z,3.42
2018-02-20T18:29:04.382Z,3.24
2018-02-20T18:31:31.790Z,3.22
2018-02-20T18:33:59.178Z,3.17
2018-02-20T18:36:26.579Z,3.13
2018-02-20T18:38:54.003Z,3.12
2018-02-20T18:41:21.403Z,3.25
2018-02-20T18:43:48.798Z,3.45
2018-02-20T18:46:16.202Z,3.12
2018-02-20T18:48:43.629Z,3.11
2018-02-20T18:51:11.006Z,3.07
2018-02-20T18:53:38.407Z,3.16
2018-02-20T18:56:05.790Z,2.97
2018-02-20T18:58:33.190Z,2.94
2018-02-20T19:01:00.639Z,2.87
2018-02-20T19:03:28.037Z,3.06
2018-02-20T19:05:55.430Z,3.16
2018-02-20T19:08:22.902Z,3.08
2018-02-20T19:10:50.326Z,3.22
2018-02-20T19:13:17.716Z,3.25
2018-02-20T19:15:45.106Z,3.36
2018-02-20T19:18:12.509Z,3.33
2018-02-20T19:20:39.946Z,3.32
2018-02-20T19:23:07.340Z,3.22
2018-02-20T19:25:34.730Z,3.24
2018-02-20T19:28:02.122Z,3.11
2018-02-20T19:30:29.517Z,3.05
2018-02-20T19:32:56.962Z,2.87
2018-02-20T19:35:24.346Z,2.77
2018-02-20T19:37:51.748Z,2.67
2018-02-20T19:40:19.142Z,2.71
2018-02-20T19:42:46.546Z,2.65
2018-02-20T19:45:13.938Z,2.47
2018-02-20T19:47:41.326Z,2.22
2018-02-20T19:50:08.734Z,2.17
2018-02-20T19:52:36.119Z,2.11
2018-02-20T19:55:03.514Z,2.10
2018-02-20T19:57:30.905Z,1.79
2018-02-20T19:59:58.314Z,1.73
2018-02-20T20:02:25.706Z,1.66
2018-02-20T20:04:53.107Z,1.79
2018-02-20T20:07:20.501Z,1.67
2018-02-20T20:09:47.900Z,1.60
2018-02-20T20:12:15.293Z,1.48
2018-02-20T20:14:42.690Z,1.34
2018-02-20T20:17:10.101Z,1.15
2018-02-20T20:19:37.487Z,1.21
2018-02-20T20:22:04.885Z,1.12
2018-02-20T20:24:32.320Z,1.17
2018-02-20T20:26:59.705Z,1.24
2018-02-20T20:29:27.099Z,1.09
2018-02-20T20:31:54.491Z,1.19
2018-02-20T20:34:21.887Z,1.10
2018-02-20T20:36:49.278Z,1.00
2018-02-20T20:39:16.675Z,0.81
2018-02-20T20:41:44.114Z,0.91
2018-02-20T20:44:11.524Z,1.01
2018-02-20T20:46:38.991Z,0.82
2018-02-20T20:49:06.462Z,0.69
2018-02-20T20:51:33.871Z,0.67
2018-02-20T20:54:01.258Z,0.60
2018-02-20T20:56:28.654Z,0.60
2018-02-20T20:58:56.046Z,0.59
2018-02-20T21:01:23.461Z,0.49
2018-02-20T21:03:50.863Z,0.34
2018-02-20T21:06:18.251Z,0.35
2018-02-20T21:08:45.643Z,0.50
2018-02-20T21:11:13.121Z,0.45
2018-02-20T21:13:40.514Z,0.41
2018-02-20T21:16:07.918Z,0.43
2018-02-20T21:18:35.303Z,0.36
2018-02-20T21:21:02.710Z,0.25
2018-02-20T21:23:30.101Z,0.36
2018-02-20T21:25:57.494Z,0.25
2018-02-20T21:28:24.909Z,0.19
2018-02-20T21:30:52.302Z,0.33
2018-02-20T21:33:19.694Z,0.47
2018-02-20T21:35:47.094Z,0.43
2018-02-20T21:38:14.484Z,0.33
2018-02-20T21:40:41.889Z,0.38
2018-02-20T21:43:09.274Z,0.35
2018-02-20T21:45:36.671Z,0.35
2018-02-20T21:48:04.063Z,0.37
2018-02-20T21:50:31.503Z,0.23
2018-02-20T21:52:58.899Z,0.26
2018-02-20T21:55:26.307Z,0.32
2018-02-20T21:57:53.698Z,0.32
2018-02-20T22:00:21.095Z,0.20
2018-02-20T22:02:48.495Z,0.28
2018-02-20T22:05:15.927Z,0.07
2018-02-20T22:07:43.312Z,0.01
2018-02-20T22:10:10.701Z,0.04
2018-02-20T22:12:38.103Z,-0.07
2018-02-20T22:15:05.506Z,0.07
2018-02-20T22:17:32.902Z,0.02
2018-02-20T22:20:00.315Z,-0.03
2018-02-20T22:22:27.703Z,-0.11
2018-02-20T22:24:55.158Z,-0.13
2018-02-20T22:27:22.624Z,-0.17
2018-02-20T22:29:50.082Z,-0.11
2018-02-20T22:32:17.494Z,0.12
2018-02-20T22:34:44.910Z,0.18
2018-02-20T22:37:12.299Z,-0.08
2018-02-20T22:39:39.732Z,-0.11
2018-02-20T22:42:07.127Z,-0.13
2018-02-20T22:44:34.539Z,-0.08
2018-02-20T22:47:01.994Z,-0.04
2018-02-20T22:49:29.375Z,0.02
2018-02-20T22:51:56.846Z,-0.05
2018-02-20T22:54:24.295Z,-0.14
2018-02-20T22:56:51.722Z,-0.07
2018-02-20T22:59:19.123Z,-0.05
2018-02-20T23:01:46.523Z,-0.03
2018-02-20T23:04:13.948Z,-0.23
2018-02-20T23:06:41.355Z,-0.29
2018-02-20T23:09:08.743Z,-0.34
2018-02-20T23:11:43.838Z,-0.40
2018-02-20T23:14:11.230Z,-0.61
2018-02-20T23:16:38.630Z,-0.46
2018-02-20T23:19:06.029Z,-0.46
2018-02-20T23:21:33.428Z,-0.50
2018-02-20T23:24:00.835Z,-0.55
2018-02-20T23:26:28.242Z,-0.51
2018-02-20T23:28:55.634Z,-0.36
2018-02-20T23:31:23.048Z,-0.34
2018-02-20T23:33:50.438Z,-0.41
2018-02-20T23:36:17.851Z,-0.28
2018-02-20T23:38:45.269Z,-0.12
2018-02-20T23:41:12.673Z,-0.22
2018-02-20T23:43:40.066Z,-0.29
2018-02-20T23:46:07.514Z,-0.28
2018-02-20T23:48:34.915Z,-0.34
2018-02-20T23:51:07.818Z,-0.56
2018-02-20T23:53:35.235Z,-0.52
2018-02-20T23:56:02.647Z,-0.43
2018-02-20T23:58:30.027Z,-0.42
